Time;durP1;ratioP1;P1;durP2;ratioP2;P2;SDS_P1;SDS_P2;PMS_P1;PMS_P2;Temp;Humidity;BMP_temperature;BMP_pressure;BME280_temperature;BME280_humidity;BME280_pressure;Samples;Min_cycle;Max_cycle;Signal;HPM_P1;HPM_P2
2023/10/30 00:00:48;;;;;;;;;2.00;2.00;;;;;16.35;73.69;99170.41;6282901;20;2743996;-47
2023/10/30 00:03:16;;;;;;;;;3.00;2.00;;;;;16.22;74.03;99169.84;6287131;20;2744133;-51
2023/10/30 00:05:45;;;;;;;;;1.00;1.00;;;;;16.35;73.89;99164.97;6286401;20;2744225;-49
2023/10/30 00:08:13;;;;;;;;;2.00;2.00;;;;;16.26;74.23;99168.53;6287421;20;2748203;-49
2023/10/30 00:10:41;;;;;;;;;4.00;2.00;;;;;16.27;73.71;99169.38;6285247;20;2742051;-49
2023/10/30 00:13:08;;;;;;;;;3.00;2.00;;;;;16.15;74.92;99165.97;6285372;20;2746130;-49
2023/10/30 00:15:36;;;;;;;;;2.50;2.00;;;;;16.26;74.21;99163.13;6285037;20;2746480;-46
2023/10/30 00:18:04;;;;;;;;;4.00;3.00;;;;;16.22;73.94;99162.56;6286014;20;2746221;-46
2023/10/30 00:20:35;;;;;;;;;2.00;1.00;;;;;16.19;74.59;99170.09;6290894;20;2616943;-46
2023/10/30 00:23:03;;;;;;;;;1.00;1.00;;;;;16.14;74.73;99173.25;6284145;20;2733605;-54
2023/10/30 00:25:31;;;;;;;;;1.00;1.00;;;;;16.01;74.93;99173.53;6288835;20;2729565;-52
2023/10/30 00:28:00;;;;;;;;;3.00;2.00;;;;;16.00;75.00;99174.50;6286335;20;2735696;-47
2023/10/30 00:30:28;;;;;;;;;3.50;2.00;;;;;16.07;75.02;99179.38;6283396;20;2755583;-46
2023/10/30 00:32:56;;;;;;;;;2.00;1.00;;;;;16.11;74.81;99172.66;6301467;20;1786779;-47
2023/10/30 00:35:24;;;;;;;;;3.00;2.00;;;;;15.95;75.30;99170.53;6312973;20;2753408;-48
2023/10/30 00:37:52;;;;;;;;;5.50;2.00;;;;;16.02;74.80;99169.81;6285771;20;2754509;-48
2023/10/30 00:40:20;;;;;;;;;4.00;2.00;;;;;16.01;74.43;99169.97;6281096;20;2752368;-49
2023/10/30 00:42:48;;;;;;;;;2.00;2.00;;;;;16.07;74.55;99168.56;6282387;20;2747153;-47
2023/10/30 00:45:17;;;;;;;;;0.00;0.00;;;;;16.14;74.13;99158.84;6288243;20;2728442;-49
2023/10/30 00:47:45;;;;;;;;;3.00;2.00;;;;;16.15;73.89;99165.97;6284567;20;2726436;-52
2023/10/30 00:50:12;;;;;;;;;1.00;1.00;;;;;16.16;73.26;99167.69;6284833;20;2728396;-52
2023/10/30 00:52:40;;;;;;;;;2.00;2.00;;;;;15.99;74.45;99166.56;6285255;20;2730723;-51
2023/10/30 00:55:08;;;;;;;;;1.00;1.00;;;;;16.02;74.65;99167.09;6282219;20;2730606;-53
2023/10/30 00:57:36;;;;;;;;;2.00;2.00;;;;;15.84;75.21;99168.81;6281040;20;2744166;-49
2023/10/30 01:00:05;;;;;;;;;2.50;2.00;;;;;15.82;74.94;99159.13;6281186;20;2747226;-48
2023/10/30 01:02:33;;;;;;;;;2.00;2.00;;;;;15.68;75.86;99161.19;6282397;20;2744131;-50
2023/10/30 01:05:01;;;;;;;;;4.50;2.00;;;;;15.81;75.40;99163.69;6284614;20;2750309;-47
2023/10/30 01:07:30;;;;;;;;;2.00;1.50;;;;;15.81;75.07;99158.25;6284001;20;2731642;-48
2023/10/30 01:09:57;;;;;;;;;5.00;3.00;;;;;15.93;74.63;99161.69;6284236;20;2756906;-46
2023/10/30 01:12:25;;;;;;;;;3.50;2.00;;;;;15.78;75.65;99163.97;6284842;20;2748356;-46
2023/10/30 01:14:53;;;;;;;;;2.00;2.00;;;;;15.91;75.27;99156.44;6285269;20;2744639;-51
2023/10/30 01:17:21;;;;;;;;;2.00;2.00;;;;;15.85;75.22;99148.00;6283694;20;2744053;-52
2023/10/30 01:19:49;;;;;;;;;2.00;2.00;;;;;15.87;75.03;99146.88;6282655;20;2746232;-50
2023/10/30 01:22:17;;;;;;;;;2.00;2.00;;;;;15.73;76.17;99147.28;6283260;20;2744131;-49
2023/10/30 01:24:44;;;;;;;;;1.00;1.00;;;;;15.80;75.65;99145.75;6285444;20;2729494;-47
2023/10/30 01:27:12;;;;;;;;;2.00;2.00;;;;;15.85;75.61;99148.88;6283035;20;2741035;-52
2023/10/30 01:29:43;;;;;;;;;1.57;1.29;;;;;15.76;76.79;99147.00;6326120;20;3461085;-49
2023/10/30 01:32:11;;;;;;;;;3.00;1.00;;;;;15.82;76.02;99151.84;6311195;20;2729437;-45
2023/10/30 01:34:39;;;;;;;;;3.00;2.00;;;;;15.93;75.17;99151.72;6284256;20;2750286;-46
2023/10/30 01:37:07;;;;;;;;;1.00;1.00;;;;;16.03;74.79;99151.72;6280846;20;2752499;-46
2023/10/30 01:39:36;;;;;;;;;2.00;2.00;;;;;16.00;74.63;99147.44;6284228;20;2733656;-47
2023/10/30 01:42:04;;;;;;;;;3.50;1.50;;;;;16.21;73.97;99150.00;6283028;20;2739973;-47
2023/10/30 01:44:32;;;;;;;;;2.00;1.00;;;;;16.15;74.34;99147.03;6286201;20;2724280;-46
2023/10/30 01:47:00;;;;;;;;;2.00;2.00;;;;;16.28;73.60;99150.28;6280009;20;2742061;-50
2023/10/30 01:49:28;;;;;;;;;3.00;2.00;;;;;16.39;73.28;99147.41;6285532;20;2748171;-47
2023/10/30 01:51:56;;;;;;;;;2.50;2.00;;;;;16.28;73.89;99139.47;6279899;20;2726375;-50
2023/10/30 01:54:24;;;;;;;;;2.00;2.00;;;;;16.38;72.93;99147.59;6280193;20;2737784;-49
2023/10/30 01:56:52;;;;;;;;;3.00;1.00;;;;;16.20;74.12;99148.31;6293824;20;1803513;-47
2023/10/30 01:59:23;;;;;;;;;1.20;1.20;;;;;16.39;73.41;99142.00;6351402;20;2455681;-46
2023/10/30 02:01:51;;;;;;;;;2.00;2.00;;;;;16.29;73.81;99143.88;6310110;20;2748203;-50
2023/10/30 02:04:20;;;;;;;;;2.00;2.00;;;;;16.42;73.04;99143.56;6286324;20;2737955;-49
2023/10/30 02:06:48;;;;;;;;;2.50;2.00;;;;;16.54;72.35;99138.84;6286510;20;2752347;-48
2023/10/30 02:09:16;;;;;;;;;1.00;1.00;;;;;16.62;71.62;99141.69;6290416;20;2725456;-48
2023/10/30 02:11:44;;;;;;;;;1.00;1.00;;;;;16.54;72.36;99142.41;6284964;20;2724277;-49
2023/10/30 02:14:11;;;;;;;;;2.00;2.00;;;;;16.48;72.70;99142.13;6289992;20;2748302;-46
2023/10/30 02:16:39;;;;;;;;;1.00;1.00;;;;;16.37;73.08;99138.56;6288184;20;2729549;-49
2023/10/30 02:19:19;;;;;;;;;2.00;2.00;;;;;16.64;72.45;99142.38;6286294;20;2746140;-45
2023/10/30 02:21:47;;;;;;;;;1.00;1.00;;;;;16.52;72.91;99146.25;6287281;20;2727400;-49
2023/10/30 02:24:15;;;;;;;;;1.00;1.00;;;;;16.53;72.12;99132.56;6289754;20;2721246;-50
2023/10/30 02:26:43;;;;;;;;;3.00;1.00;;;;;16.68;71.63;99138.38;6286295;20;2726372;-49
2023/10/30 02:29:11;;;;;;;;;2.50;2.50;;;;;16.62;71.95;99133.56;6287408;20;2753846;-49
2023/10/30 02:31:39;;;;;;;;;2.00;1.00;;;;;16.77;70.75;99139.34;6288806;20;2733754;-48
2023/10/30 02:34:07;;;;;;;;;0.00;0.00;;;;;16.84;70.04;99130.50;6288207;20;2730565;-45
2023/10/30 02:36:35;;;;;;;;;1.00;1.00;;;;;16.80;70.70;99133.69;6286400;20;2731528;-46
2023/10/30 02:39:03;;;;;;;;;3.00;2.00;;;;;16.62;71.51;99136.25;6288890;20;2750224;-51
2023/10/30 02:41:31;;;;;;;;;2.00;2.00;;;;;16.60;71.84;99147.25;6286349;20;2744155;-47
2023/10/30 02:43:59;;;;;;;;;3.00;1.00;;;;;16.63;72.17;99140.66;6290694;20;2735789;-51
2023/10/30 02:46:27;;;;;;;;;6.00;1.00;;;;;16.57;72.12;99146.69;6286527;20;2729503;-50
2023/10/30 02:48:56;;;;;;;;;1.00;1.00;;;;;16.61;71.96;99142.66;6283816;20;2724257;-52
2023/10/30 02:51:23;;;;;;;;;3.00;2.00;;;;;16.48;72.28;99142.13;6286215;20;2752487;-49
2023/10/30 02:53:51;;;;;;;;;2.00;1.00;;;;;16.52;71.78;99138.97;6287970;20;2732679;-48
2023/10/30 02:56:19;;;;;;;;;2.00;2.00;;;;;16.39;72.83;99147.41;6287164;20;2742058;-47
2023/10/30 02:58:47;;;;;;;;;2.00;2.00;;;;;16.51;72.21;99139.13;6287436;20;2756757;-48
2023/10/30 03:01:15;;;;;;;;;1.50;1.50;;;;;16.40;72.66;99149.16;6286092;20;2738846;-46
2023/10/30 03:03:42;;;;;;;;;2.00;2.00;;;;;16.53;71.56;99142.53;6288777;20;2744000;-46
2023/10/30 03:06:10;;;;;;;;;2.00;2.00;;;;;16.49;72.23;99151.97;6284957;20;2729491;-46
2023/10/30 03:08:38;;;;;;;;;4.50;3.00;;;;;16.32;72.62;99149.00;6285656;20;2756558;-50
2023/10/30 03:11:07;;;;;;;;;1.00;1.00;;;;;16.35;72.83;99151.44;6285108;20;2729622;-45
2023/10/30 03:13:35;;;;;;;;;3.00;2.00;;;;;16.34;72.56;99144.28;6285606;20;2752350;-48
2023/10/30 03:16:04;;;;;;;;;3.00;1.00;;;;;16.48;71.97;99150.25;6287890;20;2733729;-46
2023/10/30 03:18:31;;;;;;;;;1.50;1.50;;;;;16.44;72.14;99150.53;6286161;20;2736267;-50
2023/10/30 03:21:00;;;;;;;;;2.50;2.00;;;;;16.46;72.21;99148.56;6283594;20;2746259;-46
2023/10/30 03:23:27;;;;;;;;;1.00;1.00;;;;;16.61;71.07;99153.50;6288495;20;2740425;-53
2023/10/30 03:25:56;;;;;;;;;5.50;2.00;;;;;16.51;71.45;99149.97;6284685;20;2754118;-49
2023/10/30 03:28:23;;;;;;;;;4.00;1.00;;;;;16.54;71.40;99141.56;6286715;20;2738854;-49
2023/10/30 03:30:51;;;;;;;;;2.00;2.00;;;;;16.56;70.79;99150.38;6284201;20;2750445;-46
2023/10/30 03:33:20;;;;;;;;;4.00;2.00;;;;;16.43;71.36;99148.84;6280609;20;2756652;-50
2023/10/30 03:35:49;;;;;;;;;1.25;1.00;;;;;16.43;71.11;99154.28;6302257;20;1793145;-50
2023/10/30 03:38:17;;;;;;;;;2.00;2.00;;;;;16.50;71.04;99154.53;6314229;20;2732609;-52
2023/10/30 03:40:45;;;;;;;;;3.00;2.00;;;;;16.50;71.35;99151.81;6287223;20;2739956;-48
2023/10/30 03:43:15;;;;;;;;;2.00;2.00;;;;;16.39;71.32;99150.13;6288491;20;2751848;-51
2023/10/30 03:45:44;;;;;;;;;2.50;2.50;;;;;16.32;71.24;99150.84;6288409;20;2748320;-48
2023/10/30 03:48:12;;;;;;;;;1.00;1.00;;;;;16.40;71.10;99150.97;6289895;20;2723251;-48
2023/10/30 03:50:39;;;;;;;;;1.00;1.00;;;;;16.58;69.61;99157.38;6289247;20;2731658;-50
2023/10/30 03:53:07;;;;;;;;;1.00;1.00;;;;;16.43;70.34;99153.41;6285160;20;2726569;-47
2023/10/30 03:55:36;;;;;;;;;1.00;1.00;;;;;16.45;69.98;99156.81;6301363;20;1795234;-46
2023/10/30 03:58:04;;;;;;;;;3.00;1.00;;;;;16.52;69.80;99154.41;6312528;20;2739957;-49
2023/10/30 04:00:32;;;;;;;;;3.00;1.00;;;;;16.55;69.48;99148.69;6282143;20;2729449;-46
2023/10/30 04:03:00;;;;;;;;;1.00;1.00;;;;;16.49;69.28;99152.84;6282551;20;2727398;-46
2023/10/30 04:05:28;;;;;;;;;2.00;2.00;;;;;16.49;69.29;99152.84;6284498;20;2744572;-47
2023/10/30 04:07:55;;;;;;;;;3.00;1.00;;;;;16.51;69.81;99158.09;6282881;20;2726350;-50
2023/10/30 04:10:23;;;;;;;;;3.50;2.00;;;;;16.40;69.96;99153.69;6289241;20;2754447;-46
2023/10/30 04:12:51;;;;;;;;;1.00;1.00;;;;;16.36;69.96;99158.56;6286287;20;2731525;-51
2023/10/30 04:15:20;;;;;;;;;1.00;1.00;;;;;16.26;70.13;99157.69;6304652;20;1800449;-49
2023/10/30 04:17:48;;;;;;;;;1.00;1.00;;;;;16.45;69.67;99152.25;6318965;20;2725699;-48
2023/10/30 04:20:16;;;;;;;;;4.00;1.00;;;;;16.14;71.17;99148.00;6287221;20;2735707;-49
2023/10/30 04:22:44;;;;;;;;;2.00;2.00;;;;;16.22;70.37;99151.72;6302809;20;1807646;-50
2023/10/30 04:25:12;;;;;;;;;1.00;1.00;;;;;16.26;69.79;99159.56;6316828;20;2719435;-48
2023/10/30 04:27:40;;;;;;;;;1.00;1.00;;;;;16.04;70.77;99142.59;6285733;20;2713856;-49
2023/10/30 04:30:09;;;;;;;;;1.00;1.00;;;;;16.41;69.76;99145.44;6288182;20;2727350;-50
2023/10/30 04:32:37;;;;;;;;;2.00;2.00;;;;;16.21;69.94;99147.28;6283821;20;2742094;-48
2023/10/30 04:35:06;;;;;;;;;1.00;1.00;;;;;16.33;69.85;99145.31;6282709;20;2729545;-47
2023/10/30 04:37:34;;;;;;;;;1.00;1.00;;;;;16.30;69.31;99132.03;6282675;20;2728405;-47
2023/10/30 04:40:02;;;;;;;;;2.00;2.00;;;;;16.20;69.53;99136.63;6287459;20;2741962;-48
2023/10/30 04:42:30;;;;;;;;;3.00;2.00;;;;;16.14;69.59;99145.28;6284275;20;2750333;-46
2023/10/30 04:44:58;;;;;;;;;2.00;2.00;;;;;16.09;69.86;99128.63;6285018;20;2736843;-54
2023/10/30 04:47:26;;;;;;;;;2.00;2.00;;;;;16.18;69.26;99138.59;6282300;20;2739989;-52
2023/10/30 04:49:55;;;;;;;;;2.75;1.00;;;;;16.20;69.36;99136.63;6301856;20;1799410;-47
2023/10/30 04:52:25;;;;;;;;;1.50;1.50;;;;;16.14;70.27;99137.16;6314771;20;2738196;-52
2023/10/30 04:54:53;;;;;;;;;1.00;1.00;;;;;15.97;70.84;99141.47;6287946;20;2724204;-49
2023/10/30 04:57:21;;;;;;;;;3.00;1.00;;;;;16.06;70.03;99156.00;6283456;20;2735803;-48
2023/10/30 04:59:49;;;;;;;;;1.00;1.00;;;;;16.05;69.80;99154.28;6285612;20;2731582;-51
2023/10/30 05:02:17;;;;;;;;;5.00;1.00;;;;;15.99;69.69;99147.59;6286414;20;2744046;-49
2023/10/30 05:04:45;;;;;;;;;1.00;1.00;;;;;16.14;69.71;99148.00;6286354;20;2723207;-47
2023/10/30 05:07:12;;;;;;;;;2.50;0.00;;;;;15.87;71.08;99138.75;6286153;20;2728380;-50
2023/10/30 05:09:41;;;;;;;;;1.00;1.00;;;;;16.02;70.11;99142.75;6287752;20;2727372;-50
2023/10/30 05:12:09;;;;;;;;;2.50;2.50;;;;;16.01;70.15;99137.47;6283777;20;2752424;-53
2023/10/30 05:14:36;;;;;;;;;2.00;2.00;;;;;15.93;71.05;99140.91;6282201;20;2744134;-48
2023/10/30 05:17:05;;;;;;;;;2.50;1.50;;;;;15.91;71.02;99140.19;6300548;20;1798353;-51
2023/10/30 05:19:33;;;;;;;;;2.00;2.00;;;;;15.94;69.58;99142.59;6316562;20;2738834;-49
2023/10/30 05:22:01;;;;;;;;;1.00;1.00;;;;;15.85;70.56;99150.72;6282006;20;2724291;-49
2023/10/30 05:24:29;;;;;;;;;1.00;1.00;;;;;16.01;69.26;99156.44;6287258;20;2727420;-48
2023/10/30 05:26:57;;;;;;;;;2.00;2.00;;;;;16.12;68.83;99150.03;6281141;20;2744151;-51
2023/10/30 05:29:24;;;;;;;;;1.00;1.00;;;;;15.97;69.83;99153.13;6287458;20;2733683;-47
2023/10/30 05:31:52;;;;;;;;;2.00;2.00;;;;;15.99;69.43;99161.97;6286259;20;2739954;-51
2023/10/30 05:34:20;;;;;;;;;2.00;2.00;;;;;16.07;69.02;99163.13;6281196;20;2737838;-47
2023/10/30 05:36:48;;;;;;;;;2.00;2.00;;;;;16.01;68.51;99160.00;6283637;20;2752498;-49
2023/10/30 05:39:16;;;;;;;;;3.00;2.00;;;;;16.11;67.93;99159.97;6287548;20;2748263;-48
2023/10/30 05:41:43;;;;;;;;;1.00;1.00;;;;;16.10;68.07;99157.44;6289502;20;2731645;-53
2023/10/30 05:44:11;;;;;;;;;2.00;2.00;;;;;16.20;67.54;99158.28;6290687;20;2752462;-51
2023/10/30 05:46:39;;;;;;;;;1.00;1.00;;;;;16.20;68.18;99169.13;6290826;20;2729498;-51
2023/10/30 05:49:07;;;;;;;;;1.00;1.00;;;;;16.21;67.80;99170.81;6290745;20;2735671;-48
2023/10/30 05:51:35;;;;;;;;;2.00;2.00;;;;;16.25;68.04;99172.25;6286200;20;2753434;-49
2023/10/30 05:54:03;;;;;;;;;2.00;2.00;;;;;16.07;67.83;99173.97;6287346;20;2748219;-49
2023/10/30 05:56:31;;;;;;;;;3.00;2.00;;;;;16.18;67.21;99174.66;6289849;20;2750307;-47
2023/10/30 05:58:58;;;;;;;;;1.00;1.00;;;;;16.31;67.39;99187.06;6292496;20;2727390;-47
2023/10/30 06:01:28;;;;;;;;;2.40;2.00;;;;;16.20;67.62;99183.50;6309732;20;2742036;-48
2023/10/30 06:03:56;;;;;;;;;6.00;1.50;;;;;16.14;67.59;99185.91;6317897;20;2742073;-47
2023/10/30 06:06:24;;;;;;;;;5.00;2.00;;;;;16.30;67.09;99197.06;6288893;20;2736765;-46
2023/10/30 06:08:52;;;;;;;;;3.00;1.00;;;;;16.42;67.85;99195.06;6288630;20;2731561;-49
2023/10/30 06:11:19;;;;;;;;;2.00;2.00;;;;;16.28;67.10;99206.34;6291554;20;2741982;-51
2023/10/30 06:13:47;;;;;;;;;3.00;2.00;;;;;16.38;67.11;99204.47;6287288;20;2748202;-46
2023/10/30 06:16:20;;;;;;;;;2.00;2.00;;;;;16.37;66.29;99203.59;6286519;20;2738828;-49
2023/10/30 06:18:48;;;;;;;;;2.00;2.00;;;;;16.38;67.51;99213.47;6287324;20;2744024;-49
2023/10/30 06:21:17;;;;;;;;;2.00;2.00;;;;;16.60;66.75;99217.72;6289587;20;2740986;-49
2023/10/30 06:23:48;;;;;;;;;1.60;1.60;;;;;16.65;66.46;99220.00;6328656;20;2480027;-48
2023/10/30 06:26:16;;;;;;;;;7.00;2.00;;;;;16.46;66.45;99221.72;6316873;20;2756595;-47
2023/10/30 06:28:44;;;;;;;;;2.00;2.00;;;;;16.82;66.70;99213.84;6285541;20;2733629;-49
2023/10/30 06:31:17;;;;;;;;;2.00;2.00;;;;;17.25;64.70;99220.59;6288812;20;2740004;-47
2023/10/30 06:33:47;;;;;;;;;2.50;2.00;;;;;19.16;57.52;99228.66;6287229;20;2743112;-47
2023/10/30 06:36:15;;;;;;;;;3.50;2.00;;;;;21.23;51.68;99228.78;6288876;20;2737286;-49
2023/10/30 06:38:44;;;;;;;;;1.20;1.20;;;;;23.32;45.59;99234.34;6312689;20;2729455;-47
2023/10/30 06:41:14;;;;;;;;;4.33;1.33;;;;;24.41;43.17;99239.13;6318214;20;2742035;-49
2023/10/30 06:43:43;;;;;;;;;6.00;1.40;;;;;27.16;37.93;99239.38;6340608;20;2756529;-49
2023/10/30 06:46:13;;;;;;;;;2.00;1.40;;;;;22.93;44.58;99237.25;6308808;20;2731513;-47
2023/10/30 06:48:42;;;;;;;;;1.00;1.00;;;;;23.99;45.18;99244.38;6337329;20;2736714;-47
2023/10/30 06:51:12;;;;;;;;;0.00;0.00;;;;;23.38;44.83;99241.81;6342549;20;2735700;-50
2023/10/30 06:53:40;;;;;;;;;0.00;0.00;;;;;21.13;49.63;99225.38;6320349;20;2723252;-49
2023/10/30 06:56:09;;;;;;;;;2.33;0.67;;;;;19.47;54.02;99237.16;6319773;20;2726522;-49
2023/10/30 06:58:38;;;;;;;;;5.00;2.00;;;;;18.60;58.01;99228.03;6318304;20;2756702;-48
2023/10/30 07:01:06;;;;;;;;;1.00;1.00;;;;;21.42;50.71;99234.91;6316013;20;2735725;-47
2023/10/30 07:03:36;;;;;;;;;3.67;2.00;;;;;22.00;48.72;99238.25;6342384;20;1912834;-47
2023/10/30 07:06:05;;;;;;;;;1.67;1.67;;;;;22.85;46.03;99240.06;6285764;20;2741948;-50
2023/10/30 07:08:34;;;;;;;;;0.40;0.40;;;;;26.77;38.09;99252.06;6340124;20;2727395;-47
2023/10/30 07:11:04;;;;;;;;;1.20;0.60;;;;;27.44;37.11;99260.38;6341110;20;2728439;-52
2023/10/30 07:13:34;;;;;;;;;0.00;0.00;;;;;25.09;39.64;99259.69;6341341;20;2727490;-51
2023/10/30 07:16:07;;;;;;;;;0.00;0.00;;;;;22.66;45.56;99252.38;6341977;20;2605601;-48
2023/10/30 07:18:35;;;;;;;;;1.00;1.00;;;;;20.72;51.86;99250.00;6316993;20;2748331;-49
2023/10/30 07:21:05;;;;;;;;;0.20;0.20;;;;;20.72;51.64;99244.53;6341701;20;2727453;-46
2023/10/30 07:23:35;;;;;;;;;0.80;0.80;;;;;20.83;52.46;99246.91;6339787;20;2737779;-52
2023/10/30 07:26:05;;;;;;;;;3.20;1.40;;;;;20.42;53.44;99243.28;6340304;20;2742071;-49
2023/10/30 07:28:34;;;;;;;;;0.60;0.60;;;;;20.65;53.21;99251.69;6338935;20;2726438;-48
2023/10/30 07:31:04;;;;;;;;;0.60;0.60;;;;;20.41;52.39;99251.66;6342997;20;2731571;-49
2023/10/30 07:33:34;;;;;;;;;0.20;0.20;;;;;20.25;53.16;99245.13;6338561;20;2722161;-50
2023/10/30 07:36:04;;;;;;;;;0.60;0.60;;;;;20.68;52.60;99245.03;6338274;20;2719012;-51
2023/10/30 07:38:33;;;;;;;;;0.67;0.67;;;;;20.66;52.92;99239.75;6316833;20;2728487;-52
2023/10/30 07:41:04;;;;;;;;;3.00;0.60;;;;;20.78;52.69;99238.38;6340112;20;2716450;-49
2023/10/30 07:43:32;;;;;;;;;0.67;0.67;;;;;20.77;52.66;99235.81;6317503;20;2727457;-50
2023/10/30 07:46:01;;;;;;;;;2.67;2.00;;;;;20.40;52.08;99250.75;6341057;20;1906668;-47
2023/10/30 07:48:30;;;;;;;;;1.00;1.00;;;;;21.06;51.77;99257.13;6288290;20;2726424;-49
2023/10/30 07:51:04;;;;;;;;;2.00;0.00;;;;;21.11;51.41;99252.00;6316066;20;2723167;-48
2023/10/30 07:53:33;;;;;;;;;0.00;0.00;;;;;20.86;52.93;99244.88;6338882;20;2716955;-51
2023/10/30 07:56:02;;;;;;;;;3.00;1.00;;;;;21.33;51.57;99258.63;6319517;20;2731563;-48
2023/10/30 07:58:32;;;;;;;;;0.00;0.00;;;;;21.74;50.45;99242.13;6343177;20;2728475;-50
2023/10/30 08:01:03;;;;;;;;;0.60;0.60;;;;;21.41;50.84;99246.88;6338376;20;2724421;-46
2023/10/30 08:03:33;;;;;;;;;0.60;0.60;;;;;21.48;50.82;99246.00;6342205;20;2724245;-47
2023/10/30 08:06:02;;;;;;;;;0.67;0.00;;;;;21.43;50.43;99247.50;6319311;20;2729572;-49
2023/10/30 08:08:31;;;;;;;;;0.60;0.60;;;;;21.53;50.41;99242.72;6341398;20;2731597;-46
2023/10/30 08:11:03;;;;;;;;;0.00;0.00;;;;;21.86;49.32;99253.53;6341860;20;2729490;-48
2023/10/30 08:13:31;;;;;;;;;1.67;0.00;;;;;21.32;49.54;99251.44;6317513;20;2729639;-51
2023/10/30 08:16:00;;;;;;;;;0.00;0.00;;;;;21.58;49.98;99256.69;6318139;20;2721634;-47
2023/10/30 08:18:29;;;;;;;;;0.80;0.00;;;;;21.87;49.30;99257.94;6338863;20;2727596;-50
2023/10/30 08:20:59;;;;;;;;;1.40;0.60;;;;;21.51;49.39;99255.69;6340959;20;2734771;-49
2023/10/30 08:23:37;;;;;;;;;0.67;0.67;;;;;21.96;49.29;99269.69;6317626;20;2727498;-48
2023/10/30 08:26:07;;;;;;;;;0.00;0.00;;;;;21.60;49.85;99260.09;6339381;20;2727401;-47
2023/10/30 08:28:36;;;;;;;;;0.67;0.67;;;;;21.66;49.86;99259.41;6318986;20;2726382;-48
2023/10/30 08:31:05;;;;;;;;;2.00;0.33;;;;;21.95;49.04;99257.06;6320253;20;2728511;-46
2023/10/30 08:33:35;;;;;;;;;0.60;0.60;;;;;21.96;49.18;99242.34;6338080;20;2729536;-48
2023/10/30 08:36:05;;;;;;;;;1.00;1.00;;;;;21.76;49.76;99251.00;6339110;20;2739998;-48
2023/10/30 08:38:36;;;;;;;;;2.20;1.00;;;;;21.77;49.22;99247.22;6341305;20;2744178;-49
2023/10/30 08:41:11;;;;;;;;;0.80;0.80;;;;;21.64;49.81;99246.94;6341753;20;2727474;-48
2023/10/30 08:43:41;;;;;;;;;1.60;1.60;;;;;21.44;49.95;99238.31;6338473;20;2733672;-47
2023/10/30 08:46:18;;;;;;;;;1.00;0.00;;;;;21.82;48.66;99242.09;6339140;20;2731648;-50
2023/10/30 08:48:48;;;;;;;;;1.80;1.60;;;;;21.69;49.01;99237.19;6340990;20;2744038;-50
2023/10/30 08:51:17;;;;;;;;;1.00;0.60;;;;;21.85;49.18;99236.28;6342070;20;2727399;-48
2023/10/30 08:53:47;;;;;;;;;0.60;0.60;;;;;21.65;50.54;99240.47;6342084;20;2730587;-50
2023/10/30 08:56:17;;;;;;;;;0.60;0.60;;;;;21.72;49.86;99235.13;6336530;20;2734006;-48
2023/10/30 08:58:47;;;;;;;;;2.40;1.60;;;;;22.10;48.67;99231.53;6341443;20;2744223;-48
2023/10/30 09:01:17;;;;;;;;;0.00;0.00;;;;;21.60;49.88;99232.78;6342553;20;2731641;-53
2023/10/30 09:03:46;;;;;;;;;0.80;0.60;;;;;21.82;50.03;99241.22;6337910;20;2726355;-47
2023/10/30 09:06:16;;;;;;;;;1.20;1.20;;;;;22.08;49.64;99241.78;6337638;20;2742066;-47
2023/10/30 09:08:46;;;;;;;;;1.60;1.60;;;;;21.98;49.29;99235.69;6331497;20;2742033;-53
2023/10/30 09:11:16;;;;;;;;;0.00;0.00;;;;;22.20;49.62;99238.69;6339499;20;2721133;-50
2023/10/30 09:13:45;;;;;;;;;0.00;0.00;;;;;22.22;49.70;99231.13;6321930;20;2724277;-53
2023/10/30 09:16:14;;;;;;;;;1.00;1.00;;;;;22.26;49.29;99227.03;6342308;20;2741995;-45
2023/10/30 09:18:44;;;;;;;;;1.20;1.20;;;;;22.31;49.24;99221.88;6342791;20;2733852;-54
2023/10/30 09:21:14;;;;;;;;;0.00;0.00;;;;;22.30;49.13;99233.81;6343332;20;2727383;-50
2023/10/30 09:23:43;;;;;;;;;0.33;0.33;;;;;22.80;48.55;99232.41;6341645;20;1906573;-49
2023/10/30 09:26:11;;;;;;;;;0.00;0.00;;;;;22.47;49.88;99243.63;6288212;20;2733640;-50
2023/10/30 09:28:41;;;;;;;;;2.20;0.80;;;;;22.45;48.49;99239.38;6337493;20;2733790;-50
2023/10/30 09:31:11;;;;;;;;;0.40;0.00;;;;;22.65;48.71;99235.13;6343600;20;2727413;-51
2023/10/30 09:33:40;;;;;;;;;0.00;0.00;;;;;22.24;48.91;99234.56;6344764;20;2726348;-50
2023/10/30 09:36:10;;;;;;;;;1.00;1.00;;;;;22.29;49.39;99240.34;6342819;20;2725316;-51
2023/10/30 09:38:41;;;;;;;;;3.80;0.60;;;;;22.50;49.05;99246.00;6345222;20;2728812;-51
2023/10/30 09:41:13;;;;;;;;;1.80;0.60;;;;;22.47;48.91;99238.16;6342995;20;2741953;-54
2023/10/30 09:43:42;;;;;;;;;0.00;0.00;;;;;22.72;49.04;99247.03;6343803;20;2727394;-54
2023/10/30 09:46:16;;;;;;;;;2.00;1.00;;;;;22.33;49.37;99238.94;6344540;20;2744165;-52
2023/10/30 09:48:49;;;;;;;;;0.60;0.60;;;;;22.81;48.61;99256.03;6343911;20;2727391;-51
2023/10/30 09:51:21;;;;;;;;;1.00;1.00;;;;;22.45;49.19;99258.53;6342175;20;2739875;-48
2023/10/30 09:53:53;;;;;;;;;0.60;0.60;;;;;22.58;49.09;99254.13;6341461;20;2726337;-49
2023/10/30 09:56:25;;;;;;;;;1.80;0.20;;;;;22.84;49.17;99252.06;6339294;20;2730534;-52
2023/10/30 09:58:55;;;;;;;;;2.00;1.60;;;;;23.27;48.34;99258.69;6340138;20;2743679;-45
2023/10/30 10:01:24;;;;;;;;;0.00;0.00;;;;;22.64;48.27;99240.75;6292836;20;2728441;-47
2023/10/30 10:03:55;;;;;;;;;0.80;0.80;;;;;22.38;48.49;99236.53;6343037;20;2731594;-41
2023/10/30 10:06:24;;;;;;;;;2.00;0.33;;;;;22.76;48.44;99250.25;6320316;20;2744067;-43
2023/10/30 10:08:54;;;;;;;;;1.40;0.00;;;;;22.80;48.95;99251.56;6345392;20;2721183;-41
2023/10/30 10:11:36;;;;;;;;;0.60;0.60;;;;;22.81;48.71;99236.88;6342959;20;2735778;-40
2023/10/30 10:14:05;;;;;;;;;2.80;1.60;;;;;22.96;48.92;99246.00;6342187;20;2742102;-41
2023/10/30 10:16:36;;;;;;;;;1.80;1.60;;;;;22.96;48.21;99245.09;6342385;20;2729449;-40
2023/10/30 10:19:24;;;;;;;;;1.00;1.00;;;;;23.19;48.07;99245.09;6343041;20;2744068;-48
2023/10/30 10:21:53;;;;;;;;;1.00;1.00;;;;;22.36;49.98;99233.09;6343970;20;2725357;-48
2023/10/30 10:24:38;;;;;;;;;0.20;0.20;;;;;22.55;49.81;99235.34;6340819;20;2726424;-48
2023/10/30 10:27:07;;;;;;;;;2.00;1.60;;;;;22.54;49.85;99230.09;6335311;20;2733616;-48
2023/10/30 10:29:36;;;;;;;;;1.00;1.00;;;;;22.58;49.39;99231.41;6319808;20;2752389;-40
2023/10/30 10:32:06;;;;;;;;;0.20;0.00;;;;;23.21;48.25;99226.59;6342411;20;2729471;-39
2023/10/30 10:34:36;;;;;;;;;2.00;1.40;;;;;22.53;49.23;99221.00;6342444;20;2725280;-41
2023/10/30 10:37:06;;;;;;;;;1.00;1.00;;;;;22.71;49.01;99226.16;6340535;20;2754502;-40
2023/10/30 10:39:53;;;;;;;;;2.20;0.00;;;;;22.36;50.10;99224.91;6310656;20;2733617;-41
2023/10/30 10:42:27;;;;;;;;;0.80;0.00;;;;;22.24;50.16;99218.13;6342307;20;2727425;-41
2023/10/30 10:44:59;;;;;;;;;1.20;0.00;;;;;22.26;50.14;99211.47;6339456;20;2723488;-40
2023/10/30 10:47:29;;;;;;;;;1.60;1.60;;;;;22.27;50.22;99217.78;6332893;20;2748233;-40
2023/10/30 10:49:59;;;;;;;;;1.60;1.60;;;;;22.34;50.93;99216.88;6308176;20;2751437;-39
2023/10/30 10:52:32;;;;;;;;;1.40;1.40;;;;;22.60;50.20;99215.66;6305955;20;2728453;-43
2023/10/30 10:55:05;;;;;;;;;2.20;0.00;;;;;22.47;51.21;99202.59;6338312;20;2733831;-40
2023/10/30 10:58:20;;;;;;;;;0.60;0.60;;;;;22.04;50.81;99207.66;6305959;20;2730591;-40
2023/10/30 11:00:53;;;;;;;;;0.60;0.60;;;;;22.18;50.89;99205.16;6338173;20;2730594;-40
2023/10/30 11:03:23;;;;;;;;;1.00;1.00;;;;;21.94;50.80;99204.28;6341017;20;2737826;-40
2023/10/30 11:05:54;;;;;;;;;0.40;0.40;;;;;21.94;51.07;99196.09;6343391;20;2727401;-42
2023/10/30 11:09:07;;;;;;;;;1.00;0.00;;;;;22.04;50.61;99195.88;6340248;20;2733678;-41
2023/10/30 11:11:48;;;;;;;;;1.40;1.00;;;;;22.25;50.20;99192.47;6336902;20;2752453;-39
2023/10/30 11:14:56;;;;;;;;;0.60;0.60;;;;;22.38;50.04;99192.75;6305613;20;2727401;-40
2023/10/30 11:17:27;;;;;;;;;0.67;0.00;;;;;22.64;50.53;99181.41;6315446;20;2733659;-41
2023/10/30 11:20:10;;;;;;;;;1.20;1.20;;;;;22.84;49.29;99183.63;6340749;20;2746106;-41
2023/10/30 11:22:43;;;;;;;;;0.60;0.60;;;;;22.30;51.32;99170.91;6305535;20;2727370;-41
2023/10/30 11:25:44;;;;;;;;;4.00;0.40;;;;;23.10;49.45;99169.53;6339730;20;2744195;-40
2023/10/30 11:28:14;;;;;;;;;1.40;1.40;;;;;22.39;50.19;99172.56;6341437;20;2737843;-49